Time;durP1;ratioP1;P1;durP2;ratioP2;P2;SDS_P1;SDS_P2;PMS_P1;PMS_P2;Temp;Humidity;BMP_temperature;BMP_pressure;BME280_temperature;BME280_humidity;BME280_pressure;Samples;Min_cycle;Max_cycle;Signal;HPM_P1;HPM_P2
2022/10/14 00:01:26;;;;;;;70.75;31.38;;;;;;;9.49;100.00;101468.84;5007126;28;20465;-43
2022/10/14 00:03:52;;;;;;;82.35;34.50;;;;;;;9.49;100.00;101467.00;5009726;28;20481;-43
2022/10/14 00:06:22;;;;;;;69.15;29.88;;;;;;;9.51;100.00;101456.94;5010038;28;20031;-43
2022/10/14 00:08:47;;;;;;;70.18;31.95;;;;;;;9.55;100.00;101447.53;5009526;28;20046;-44
2022/10/14 00:11:21;;;;;;;95.95;36.13;;;;;;;9.59;100.00;101445.38;5009586;28;20520;-44
2022/10/14 00:13:47;;;;;;;83.40;32.53;;;;;;;9.65;100.00;101442.03;5009715;28;20030;-43
2022/10/14 00:16:22;;;;;;;81.40;33.67;;;;;;;9.65;100.00;101434.81;4991778;28;20092;-44
2022/10/14 00:18:47;;;;;;;89.95;33.65;;;;;;;9.68;100.00;101429.09;5009810;28;20369;-44
2022/10/14 00:21:13;;;;;;;89.38;33.55;;;;;;;9.73;100.00;101414.34;4991922;28;20029;-43
2022/10/14 00:23:38;;;;;;;105.15;40.50;;;;;;;9.73;100.00;101412.50;5009334;28;20040;-43
2022/10/14 00:26:04;;;;;;;96.93;37.70;;;;;;;9.79;100.00;101408.31;5009010;28;20073;-44
2022/10/14 00:28:29;;;;;;;107.75;40.65;;;;;;;9.88;100.00;101415.41;5009593;28;20432;-43
2022/10/14 00:30:56;;;;;;;119.72;41.40;;;;;;;9.91;100.00;101408.88;4992011;28;20036;-43
2022/10/14 00:33:22;;;;;;;119.15;42.03;;;;;;;9.94;100.00;101405.84;5009731;28;20034;-43
2022/10/14 00:35:58;;;;;;;111.35;40.17;;;;;;;10.01;100.00;101405.03;5010195;28;20050;-43
2022/10/14 00:38:23;;;;;;;113.72;37.78;;;;;;;10.06;100.00;101412.63;4991629;28;20080;-44
2022/10/14 00:40:49;;;;;;;130.10;44.78;;;;;;;10.05;100.00;101409.06;5009092;28;20037;-43
2022/10/14 00:43:14;;;;;;;121.10;44.33;;;;;;;10.10;100.00;101414.78;5013475;28;20026;-43
2022/10/14 00:45:40;;;;;;;123.97;42.67;;;;;;;10.13;100.00;101402.88;4994490;28;20060;-43
2022/10/14 00:48:06;;;;;;;122.05;40.88;;;;;;;10.19;100.00;101402.22;5012649;28;20114;-44
2022/10/14 00:50:32;;;;;;;125.20;44.45;;;;;;;10.20;100.00;101398.50;5012588;28;20030;-43
2022/10/14 00:52:58;;;;;;;126.90;43.83;;;;;;;10.28;100.00;101395.88;5012483;28;20545;-44
2022/10/14 00:55:24;;;;;;;123.75;42.80;;;;;;;10.38;100.00;101400.25;5012466;28;20026;-43
2022/10/14 00:57:50;;;;;;;158.57;49.25;;;;;;;10.49;100.00;101392.69;5013073;28;20076;-43
2022/10/14 01:00:17;;;;;;;149.63;48.53;;;;;;;10.59;100.00;101394.38;5012139;28;20026;-43
2022/10/14 01:02:43;;;;;;;137.98;45.65;;;;;;;10.52;100.00;101399.59;5012658;28;20030;-43
2022/10/14 01:05:11;;;;;;;146.10;51.03;;;;;;;10.47;100.00;101410.84;5011427;28;20025;-43
2022/10/14 01:07:39;;;;;;;165.98;51.22;;;;;;;10.46;100.00;101413.72;5011641;28;20053;-43
2022/10/14 01:10:15;;;;;;;;;;;;;;;10.47;100.00;101415.38;5011855;28;20505;-43
2022/10/14 01:13:05;;;;;;;151.48;50.38;;;;;;;10.48;100.00;101409.00;5011351;28;19963;-43
2022/10/14 01:15:39;;;;;;;149.02;48.70;;;;;;;10.50;100.00;101398.91;5012322;28;20030;-45
2022/10/14 01:18:24;;;;;;;149.07;50.65;;;;;;;10.54;100.00;101401.09;5012080;28;20030;-43
2022/10/14 01:21:01;;;;;;;151.38;49.20;;;;;;;10.59;100.00;101403.28;5011045;28;20068;-44
2022/10/14 01:23:47;;;;;;;146.90;51.10;;;;;;;10.62;100.00;101392.19;5012336;28;20038;-44
2022/10/14 01:26:28;;;;;;;141.90;50.38;;;;;;;10.63;100.00;101383.09;5011811;28;20060;-44
2022/10/14 01:29:11;;;;;;;155.05;53.95;;;;;;;10.62;100.00;101391.34;5010512;28;20030;-43
2022/10/14 01:31:41;;;;;;;173.10;54.47;;;;;;;10.62;100.00;101386.78;5010185;28;20464;-43
2022/10/14 01:34:09;;;;;;;160.07;52.22;;;;;;;10.63;100.00;101379.56;5011881;28;20117;-43
2022/10/14 01:36:43;;;;;;;156.07;52.15;;;;;;;10.65;100.00;101381.06;5009978;28;20046;-43
2022/10/14 01:39:08;;;;;;;148.77;49.08;;;;;;;10.69;100.00;101376.19;5009806;28;20143;-43
2022/10/14 01:41:37;;;;;;;157.30;51.83;;;;;;;10.72;100.00;101371.31;5012209;28;20453;-43
2022/10/14 01:44:07;;;;;;;157.82;51.10;;;;;;;10.71;100.00;101372.31;5010140;28;20469;-43
2022/10/14 01:46:34;;;;;;;156.65;52.15;;;;;;;10.73;100.00;101364.91;4993570;28;20493;-43
2022/10/14 01:49:03;;;;;;;153.52;51.60;;;;;;;10.72;100.00;101371.31;4993148;28;20602;-43
2022/10/14 01:51:32;;;;;;;163.27;52.33;;;;;;;10.74;100.00;101357.66;4992886;28;20026;-44
2022/10/14 01:54:10;;;;;;;174.18;55.60;;;;;;;10.74;100.00;101355.84;4993397;28;20028;-43
2022/10/14 01:56:36;;;;;;;157.30;51.97;;;;;;;10.74;100.00;101361.22;4993814;28;20042;-44
2022/10/14 01:59:02;;;;;;;165.77;53.28;;;;;;;10.73;100.00;101353.31;4993010;28;20512;-43
2022/10/14 02:01:27;;;;;;;166.88;52.22;;;;;;;10.72;100.00;101360.53;5009783;28;20030;-43
2022/10/14 02:03:52;;;;;;;163.68;54.28;;;;;;;10.72;100.00;101360.53;5011005;28;20083;-43
2022/10/14 02:06:26;;;;;;;153.55;51.03;;;;;;;10.80;100.00;101356.16;5047405;22;20034;-38
2022/10/14 02:09:11;;;;;;;157.63;51.03;;;;;;;10.81;100.00;101355.97;5002110;28;20034;-38
2022/10/14 02:11:45;;;;;;;158.77;51.47;;;;;;;10.80;100.00;101350.78;5008932;28;20503;-38
2022/10/14 02:14:54;;;;;;;158.32;51.65;;;;;;;10.80;100.00;101353.47;4994402;28;20112;-38
2022/10/14 02:17:32;;;;;;;153.02;50.13;;;;;;;10.80;100.00;101356.16;4961245;28;20050;-38
2022/10/14 02:20:04;;;;;;;168.70;53.70;;;;;;;10.80;100.00;101348.09;4994139;28;20050;-38
2022/10/14 02:22:31;;;;;;;160.35;50.58;;;;;;;10.85;100.00;101343.00;4976984;28;20076;-40
2022/10/14 02:25:00;;;;;;;179.75;57.45;;;;;;;10.85;100.00;101343.00;4994488;28;20033;-38
2022/10/14 02:27:27;;;;;;;169.52;56.97;;;;;;;10.86;100.00;101339.31;4994797;28;20033;-38
2022/10/14 02:29:53;;;;;;;178.35;57.47;;;;;;;10.85;100.00;101340.31;5011039;28;20058;-38
2022/10/14 02:32:20;;;;;;;171.85;54.38;;;;;;;10.86;100.00;101336.63;4993281;28;20030;-38
2022/10/14 02:34:48;;;;;;;186.10;55.70;;;;;;;10.88;100.00;101327.38;4993253;28;20030;-38
2022/10/14 02:37:14;;;;;;;158.70;53.72;;;;;;;10.92;100.00;101327.84;4993645;28;20041;-38
2022/10/14 02:39:43;;;;;;;177.23;56.90;;;;;;;10.97;100.00;101320.09;4993973;28;20085;-39
2022/10/14 02:42:08;;;;;;;169.65;57.75;;;;;;;10.95;100.00;101322.13;4993646;28;20038;-38
2022/10/14 02:44:34;;;;;;;182.32;56.85;;;;;;;10.96;100.00;101315.72;4993858;28;20531;-38
2022/10/14 02:46:59;;;;;;;185.45;56.40;;;;;;;10.98;100.00;101308.31;5009933;28;20026;-38
2022/10/14 02:49:25;;;;;;;193.68;57.30;;;;;;;10.95;100.00;101305.94;4992978;28;20038;-37
2022/10/14 02:51:50;;;;;;;201.75;60.65;;;;;;;10.96;100.00;101313.88;5010907;28;20117;-37
2022/10/14 02:54:15;;;;;;;205.27;61.85;;;;;;;10.97;100.00;101310.16;4993212;28;20103;-38
2022/10/14 02:56:41;;;;;;;197.65;58.83;;;;;;;11.02;100.00;101311.50;5010834;28;20034;-38
2022/10/14 02:59:06;;;;;;;207.77;61.90;;;;;;;11.07;100.00;101298.34;5009025;28;20029;-37
2022/10/14 03:01:32;;;;;;;212.77;62.58;;;;;;;11.09;100.00;101301.72;5010109;28;20160;-37
2022/10/14 03:03:57;;;;;;;201.90;59.35;;;;;;;11.13;100.00;101292.25;5008863;28;20390;-39
2022/10/14 03:06:23;;;;;;;215.00;62.42;;;;;;;11.16;100.00;101282.00;5009653;28;20490;-38
2022/10/14 03:08:48;;;;;;;216.52;61.60;;;;;;;11.16;100.00;101291.91;4993083;28;20022;-38
2022/10/14 03:11:13;;;;;;;246.27;66.47;;;;;;;11.21;100.00;101284.97;5010226;28;20041;-38
2022/10/14 03:13:39;;;;;;;216.00;63.95;;;;;;;11.22;100.00;101280.44;5009317;28;20065;-38
2022/10/14 03:16:04;;;;;;;233.73;65.15;;;;;;;11.22;100.00;101277.75;5010611;28;20025;-39
2022/10/14 03:18:30;;;;;;;237.57;66.97;;;;;;;11.25;100.00;101279.25;5010165;28;20133;-38
2022/10/14 03:20:55;;;;;;;243.15;67.82;;;;;;;11.31;100.00;101278.56;4992783;28;20455;-38
2022/10/14 03:23:21;;;;;;;235.43;66.22;;;;;;;11.29;100.00;101269.78;5009905;28;20034;-38
2022/10/14 03:25:46;;;;;;;238.80;67.07;;;;;;;11.28;100.00;101268.13;5010815;28;20029;-38
2022/10/14 03:28:12;;;;;;;236.77;67.50;;;;;;;11.31;100.00;101273.16;4992421;28;20083;-38
2022/10/14 03:30:37;;;;;;;243.15;67.68;;;;;;;11.34;100.00;101262.03;5010272;28;20026;-39
2022/10/14 03:33:03;;;;;;;255.68;71.65;;;;;;;11.37;100.00;101256.28;5009037;28;20030;-38
2022/10/14 03:35:28;;;;;;;255.55;70.10;;;;;;;11.38;100.00;101255.28;5008782;28;20041;-38
2022/10/14 03:37:53;;;;;;;258.55;72.70;;;;;;;11.39;100.00;101254.25;4992003;28;20450;-38
2022/10/14 03:40:19;;;;;;;292.98;76.50;;;;;;;11.38;100.00;101249.88;5009869;28;20072;-37
2022/10/14 03:42:45;;;;;;;283.73;71.88;;;;;;;11.39;100.00;101248.84;5009742;28;20026;-39
2022/10/14 03:45:11;;;;;;;287.55;74.70;;;;;;;11.40;100.00;101253.22;5008736;28;20052;-37
2022/10/14 03:47:37;;;;;;;281.45;73.55;;;;;;;11.44;100.00;101246.47;5010397;28;20034;-39
2022/10/14 03:50:03;;;;;;;276.50;69.85;;;;;;;11.45;100.00;101240.06;5010015;28;20491;-39
2022/10/14 03:52:29;;;;;;;300.15;75.97;;;;;;;11.46;100.00;101244.44;5009158;28;20060;-38
2022/10/14 03:54:55;;;;;;;290.30;73.57;;;;;;;11.48;100.00;101239.72;5010891;28;20033;-38
2022/10/14 03:57:20;;;;;;;315.90;76.90;;;;;;;11.51;100.00;101225.06;5010890;28;20075;-38
2022/10/14 03:59:45;;;;;;;323.98;76.05;;;;;;;11.52;100.00;101229.41;5009880;28;20065;-38
2022/10/14 04:02:11;;;;;;;333.02;77.30;;;;;;;11.53;100.00;101229.25;5009654;28;20359;-38
2022/10/14 04:04:36;;;;;;;315.55;76.70;;;;;;;11.58;100.00;101226.00;5009250;28;20028;-38
2022/10/14 04:07:01;;;;;;;305.52;78.60;;;;;;;11.61;100.00;101226.50;5009453;28;20133;-38
2022/10/14 04:09:28;;;;;;;327.88;79.82;;;;;;;11.62;100.00;101228.16;5008038;28;20062;-38
2022/10/14 04:11:55;;;;;;;334.38;80.22;;;;;;;11.66;100.00;101225.94;4992351;28;20111;-39
2022/10/14 04:14:21;;;;;;;335.50;78.15;;;;;;;11.65;100.00;101217.00;5010563;28;20026;-38
2022/10/14 04:16:47;;;;;;;345.75;78.47;;;;;;;11.65;100.00;101211.63;5010473;28;20033;-38
2022/10/14 04:19:12;;;;;;;321.40;75.60;;;;;;;11.69;100.00;101214.81;5013742;28;21757;-38
2022/10/14 04:21:37;;;;;;;349.70;76.82;;;;;;;11.73;100.00;101212.59;5014203;28;20500;-38
2022/10/14 04:24:03;;;;;;;353.38;78.72;;;;;;;11.74;100.00;101214.25;5013986;28;20365;-39
2022/10/14 04:26:28;;;;;;;332.52;77.75;;;;;;;11.78;100.00;101208.31;5012508;28;20378;-41
2022/10/14 04:28:53;;;;;;;320.50;74.88;;;;;;;11.81;100.00;101204.44;5014641;28;20104;-42
2022/10/14 04:31:19;;;;;;;333.42;75.50;;;;;;;11.84;100.00;101209.44;5013801;28;20064;-39
2022/10/14 04:33:44;;;;;;;317.52;74.75;;;;;;;11.83;100.00;101207.78;5013685;28;20033;-44
2022/10/14 04:36:09;;;;;;;338.75;75.57;;;;;;;11.81;100.00;101201.72;5013410;28;20101;-42
2022/10/14 04:38:35;;;;;;;325.52;72.78;;;;;;;11.82;100.00;101206.09;5014013;28;20049;-43
2022/10/14 04:41:00;;;;;;;325.48;75.20;;;;;;;11.80;100.00;101198.19;5013628;28;20511;-41
2022/10/14 04:43:26;;;;;;;326.55;71.88;;;;;;;11.83;100.00;101194.31;5014254;28;20033;-43
2022/10/14 04:45:51;;;;;;;321.33;71.45;;;;;;;11.85;100.00;101194.97;5008248;28;20034;-42
2022/10/14 04:48:17;;;;;;;341.13;72.20;;;;;;;11.86;100.00;101189.41;5012192;28;20049;-42
2022/10/14 04:50:43;;;;;;;320.17;69.63;;;;;;;11.86;100.00;101185.88;5011555;28;20025;-46
2022/10/14 04:53:08;;;;;;;312.77;71.88;;;;;;;11.85;100.00;101186.88;5011872;28;20152;-43
2022/10/14 04:55:34;;;;;;;312.20;70.65;;;;;;;11.88;100.00;101181.16;5012235;28;20084;-45
2022/10/14 04:57:59;;;;;;;310.35;67.60;;;;;;;11.89;100.00;101176.59;5012666;28;20327;-39
2022/10/14 05:00:24;;;;;;;287.67;61.97;;;;;;;11.90;100.00;101171.03;5012939;28;20128;-38
2022/10/14 05:02:50;;;;;;;284.65;62.58;;;;;;;11.96;100.00;101175.66;5009316;28;20036;-41
2022/10/14 05:05:15;;;;;;;286.33;59.90;;;;;;;11.99;100.00;101163.69;4994204;28;20028;-40
2022/10/14 05:07:41;;;;;;;266.13;56.60;;;;;;;12.00;100.00;101150.00;5012781;28;20133;-41
2022/10/14 05:10:09;;;;;;;252.63;51.50;;;;;;;12.02;100.00;101164.13;5012964;28;20038;-42
2022/10/14 05:12:35;;;;;;;250.88;55.03;;;;;;;12.03;100.00;101156.88;5012130;28;20029;-47
2022/10/14 05:15:00;;;;;;;235.95;51.28;;;;;;;12.05;100.00;101155.66;5012640;28;20060;-44
2022/10/14 05:17:26;;;;;;;222.80;47.75;;;;;;;12.05;100.00;101158.38;5011271;28;20053;-41
2022/10/14 05:19:51;;;;;;;196.50;47.63;;;;;;;12.06;100.00;101149.28;5012261;28;20389;-39
2022/10/14 05:22:16;;;;;;;202.52;46.45;;;;;;;12.13;100.00;101148.53;5012142;28;20065;-40
2022/10/14 05:24:42;;;;;;;217.90;47.38;;;;;;;12.14;100.00;101144.78;5012015;28;20030;-41
2022/10/14 05:27:07;;;;;;;206.55;45.17;;;;;;;12.13;100.00;101137.72;5012609;28;20084;-44
2022/10/14 05:29:33;;;;;;;198.50;44.75;;;;;;;12.14;100.00;101144.78;4993895;28;20025;-42
2022/10/14 05:31:58;;;;;;;192.18;43.83;;;;;;;12.18;100.00;101136.16;5011471;28;20034;-40
2022/10/14 05:34:23;;;;;;;205.63;45.83;;;;;;;12.18;100.00;101128.06;5012440;28;20026;-40
2022/10/14 05:36:49;;;;;;;194.85;42.28;;;;;;;12.16;100.00;101131.97;5012036;28;20032;-40
2022/10/14 05:39:14;;;;;;;214.45;45.83;;;;;;;12.18;100.00;101124.53;5012395;28;20057;-38
2022/10/14 05:41:39;;;;;;;201.80;43.55;;;;;;;12.20;100.00;101127.88;5011943;28;20034;-38
2022/10/14 05:44:05;;;;;;;207.50;45.05;;;;;;;12.20;100.00;101126.03;5012045;28;20107;-38
2022/10/14 05:46:30;;;;;;;200.23;42.85;;;;;;;12.21;100.00;101124.97;4994598;28;20029;-37
2022/10/14 05:48:56;;;;;;;199.32;43.45;;;;;;;12.19;100.00;101126.19;5012185;28;20153;-38
2022/10/14 05:51:22;;;;;;;186.38;41.45;;;;;;;12.20;100.00;101127.88;5012105;28;20022;-38
2022/10/14 05:53:47;;;;;;;198.88;42.53;;;;;;;12.24;100.00;101124.63;5010419;28;20477;-38
2022/10/14 05:56:13;;;;;;;191.82;40.05;;;;;;;12.22;100.00;101131.25;5011388;28;20056;-38
2022/10/14 05:58:38;;;;;;;204.60;41.42;;;;;;;12.24;100.00;101129.16;5011778;28;20040;-38
2022/10/14 06:01:06;;;;;;;202.60;41.25;;;;;;;12.25;100.00;101130.88;5011199;28;20026;-39
2022/10/14 06:03:32;;;;;;;169.68;40.00;;;;;;;12.29;100.00;101122.19;4990371;28;20431;-39
2022/10/14 06:05:57;;;;;;;178.00;38.95;;;;;;;12.31;100.00;101116.63;4991828;28;20108;-40
2022/10/14 06:08:23;;;;;;;162.25;36.90;;;;;;;12.30;100.00;101118.47;4991663;28;20343;-39
2022/10/14 06:10:49;;;;;;;169.13;36.78;;;;;;;12.31;100.00;101113.91;4991971;28;20084;-39
2022/10/14 06:13:15;;;;;;;159.85;36.20;;;;;;;12.32;100.00;101117.44;4992035;28;20038;-39
2022/10/14 06:15:40;;;;;;;165.90;37.42;;;;;;;12.33;100.00;101111.88;4995980;28;20021;-39
2022/10/14 06:18:05;;;;;;;168.40;38.38;;;;;;;12.35;100.00;101109.84;5009906;28;20080;-39
2022/10/14 06:20:31;;;;;;;155.60;36.67;;;;;;;12.38;100.00;101105.94;5011296;28;20029;-38
2022/10/14 06:23:00;;;;;;;159.13;36.25;;;;;;;12.41;100.00;101113.66;5012413;28;20440;-38
2022/10/14 06:25:25;;;;;;;153.20;36.78;;;;;;;12.42;100.00;101110.75;5012581;28;20513;-39
2022/10/14 06:27:51;;;;;;;155.73;37.72;;;;;;;12.45;100.00;101109.53;5012150;28;20036;-40
2022/10/14 06:30:16;;;;;;;157.30;37.58;;;;;;;12.46;100.00;101103.94;4993756;28;20032;-39
2022/10/14 06:32:41;;;;;;;161.13;37.80;;;;;;;12.49;100.00;101106.28;5008246;28;20046;-36
2022/10/14 06:35:07;;;;;;;162.18;38.80;;;;;;;12.52;100.00;101100.50;4984935;28;20030;-37
2022/10/14 06:37:33;;;;;;;166.45;41.08;;;;;;;12.49;100.00;101090.06;5000913;28;20022;-38
2022/10/14 06:39:58;;;;;;;151.45;37.88;;;;;;;12.55;100.00;101090.34;4999414;28;20042;-37
2022/10/14 06:42:23;;;;;;;156.05;38.22;;;;;;;12.55;100.00;101095.75;5001945;28;20070;-37
2022/10/14 06:44:49;;;;;;;158.43;37.80;;;;;;;12.56;100.00;101094.72;4984668;28;20430;-38
2022/10/14 06:47:14;;;;;;;166.65;40.45;;;;;;;12.53;100.00;101090.53;5000947;28;20038;-38
2022/10/14 06:49:39;;;;;;;195.90;46.28;;;;;;;12.56;100.00;101083.91;4999078;28;20026;-38
2022/10/14 06:52:05;;;;;;;228.68;46.70;;;;;;;12.54;100.00;101086.81;5001730;28;20073;-39
2022/10/14 06:54:30;;;;;;;225.05;47.28;;;;;;;12.56;100.00;101083.91;4999746;28;20109;-38
2022/10/14 06:56:56;;;;;;;251.93;51.83;;;;;;;12.63;100.00;101076.72;5000726;28;20022;-39
2022/10/14 06:59:21;;;;;;;272.05;53.30;;;;;;;12.66;100.00;101079.06;5001215;28;20046;-38
2022/10/14 07:01:46;;;;;;;282.60;55.08;;;;;;;12.64;100.00;101081.97;4999370;28;20022;-38
2022/10/14 07:04:12;;;;;;;305.10;57.40;;;;;;;12.64;100.00;101075.72;5001010;28;20042;-37
2022/10/14 07:06:37;;;;;;;293.00;56.33;;;;;;;12.67;100.00;101080.75;4998453;28;20034;-38
2022/10/14 07:09:03;;;;;;;332.20;60.75;;;;;;;12.72;100.00;101081.00;5001361;28;20138;-38
2022/10/14 07:11:29;;;;;;;371.33;62.92;;;;;;;12.72;100.00;101078.31;4999415;28;20023;-39
2022/10/14 07:13:55;;;;;;;351.40;61.95;;;;;;;12.72;100.00;101072.91;5000716;28;20442;-37
2022/10/14 07:16:20;;;;;;;350.95;64.40;;;;;;;12.76;100.00;101074.19;4984096;28;20041;-38
2022/10/14 07:18:47;;;;;;;375.00;63.42;;;;;;;12.82;100.00;101076.16;5000095;28;20030;-37
2022/10/14 07:21:13;;;;;;;398.50;66.78;;;;;;;12.83;100.00;101075.09;5001797;28;20034;-37
2022/10/14 07:23:39;;;;;;;400.77;64.32;;;;;;;12.82;100.00;101076.16;5000953;28;20038;-37
2022/10/14 07:26:04;;;;;;;431.90;68.97;;;;;;;12.81;100.00;101077.16;4999050;28;20027;-37
2022/10/14 07:28:30;;;;;;;424.05;66.90;;;;;;;12.82;100.00;101080.69;5001889;28;20033;-36
2022/10/14 07:31:00;;;;;;;403.63;65.68;;;;;;;12.83;100.00;101085.91;5000880;28;20037;-37
2022/10/14 07:33:25;;;;;;;372.92;63.47;;;;;;;12.85;100.00;101091.09;5001944;28;20061;-41
2022/10/14 07:35:51;;;;;;;399.92;66.43;;;;;;;12.85;100.00;101089.25;4999465;28;20165;-41
2022/10/14 07:38:16;;;;;;;406.23;67.13;;;;;;;12.88;100.00;101090.75;5001236;28;20045;-43
2022/10/14 07:40:41;;;;;;;394.77;65.05;;;;;;;12.88;100.00;101088.88;5000263;28;20029;-40
2022/10/14 07:43:07;;;;;;;392.75;63.63;;;;;;;12.89;100.00;101079.72;4981611;28;20042;-40
2022/10/14 07:45:35;;;;;;;383.15;65.32;;;;;;;12.91;100.00;101077.69;5001731;28;20025;-40
2022/10/14 07:48:00;;;;;;;;;;;;;;;12.94;100.00;101080.00;5001201;28;20556;-39
2022/10/14 07:50:25;;;;;;;374.95;65.47;;;;;;;12.94;100.00;101082.69;4999204;28;19996;-39
2022/10/14 07:52:50;;;;;;;355.58;63.88;;;;;;;12.94;100.00;101077.28;5004077;28;20136;-40
2022/10/14 07:55:16;;;;;;;348.50;62.25;;;;;;;12.94;100.00;101077.28;5004412;28;20083;-39
2022/10/14 07:57:41;;;;;;;378.55;64.90;;;;;;;12.96;100.00;101075.25;5004268;28;20484;-40
2022/10/14 08:00:07;;;;;;;371.42;66.18;;;;;;;12.98;100.00;101080.47;5005754;28;20417;-40
2022/10/14 08:02:33;;;;;;;362.00;63.50;;;;;;;12.98;100.00;101076.91;5001459;28;20068;-39
2022/10/14 08:04:58;;;;;;;385.13;69.25;;;;;;;13.00;100.00;101072.97;5005053;28;20026;-40
2022/10/14 08:07:25;;;;;;;371.33;63.40;;;;;;;13.00;100.00;101074.84;5004229;28;20365;-41
2022/10/14 08:09:52;;;;;;;309.50;59.00;;;;;;;13.11;100.00;101087.84;5006550;28;20040;-42
2022/10/14 08:12:18;;;;;;;350.38;60.30;;;;;;;13.10;100.00;101075.38;5005252;28;20034;-40
2022/10/14 08:14:43;;;;;;;330.15;60.15;;;;;;;13.09;100.00;101076.41;5003609;28;20027;-40
2022/10/14 08:17:08;;;;;;;333.70;58.03;;;;;;;13.10;100.00;101072.69;5002767;28;20029;-40
2022/10/14 08:19:34;;;;;;;293.98;55.38;;;;;;;13.10;100.00;101065.41;5004212;28;20109;-44
2022/10/14 08:21:59;;;;;;;308.45;52.00;;;;;;;13.15;100.00;101072.94;4987851;28;20061;-40
2022/10/14 08:24:25;;;;;;;267.70;47.90;;;;;;;13.17;100.00;101074.41;5005876;28;20036;-36
2022/10/14 08:26:52;;;;;;;228.25;43.10;;;;;;;13.17;100.00;101068.19;4999258;28;20488;-39
2022/10/14 08:29:18;;;;;;;235.07;45.10;;;;;;;13.20;100.00;101075.91;5004663;28;20552;-40
2022/10/14 08:31:43;;;;;;;217.20;42.40;;;;;;;13.22;100.00;101073.84;5003205;28;20023;-40
2022/10/14 08:34:10;;;;;;;205.73;41.55;;;;;;;13.26;100.00;101069.72;5002358;28;20058;-44
2022/10/14 08:36:35;;;;;;;206.65;40.47;;;;;;;13.27;100.00;101070.56;5004177;28;20026;-45
2022/10/14 08:39:00;;;;;;;198.82;38.45;;;;;;;13.34;100.00;101072.31;5003863;28;20128;-44
2022/10/14 08:41:47;;;;;;;186.52;38.55;;;;;;;13.26;100.00;101069.72;5002459;28;20117;-45
2022/10/14 08:44:28;;;;;;;194.20;38.17;;;;;;;13.25;100.00;101062.63;5002754;28;20022;-44
2022/10/14 08:46:58;;;;;;;181.98;37.80;;;;;;;13.30;100.00;101059.41;4986538;28;20058;-43
2022/10/14 08:49:57;;;;;;;160.70;34.50;;;;;;;13.38;100.00;101064.66;5003856;28;20041;-43
2022/10/14 08:52:43;;;;;;;175.27;37.80;;;;;;;13.33;100.00;101065.22;4995364;28;20496;-41
2022/10/14 08:55:42;;;;;;;158.20;35.92;;;;;;;13.34;100.00;101056.09;4974608;28;20031;-40
2022/10/14 08:58:27;;;;;;;154.05;35.80;;;;;;;13.41;100.00;101058.03;4979507;28;20096;-41
2022/10/14 09:00:52;;;;;;;154.80;36.88;;;;;;;13.30;100.00;101060.22;4992267;28;20054;-41
2022/10/14 09:03:31;;;;;;;148.80;34.60;;;;;;;13.31;100.00;101055.66;4993164;28;20154;-40
2022/10/14 09:06:03;;;;;;;143.82;34.47;;;;;;;13.30;100.00;101057.53;4976943;28;20085;-41
2022/10/14 09:08:41;;;;;;;128.30;32.45;;;;;;;13.38;100.00;101056.53;4990006;28;20494;-41
2022/10/14 09:11:12;;;;;;;125.78;32.70;;;;;;;13.28;100.00;101045.22;4975810;28;20346;-42
2022/10/14 09:13:40;;;;;;;131.70;29.70;;;;;;;13.30;100.00;101044.00;4975163;28;20018;-39
2022/10/14 09:16:24;;;;;;;124.53;31.98;;;;;;;13.29;100.00;101050.41;4993221;28;20478;-40
2022/10/14 09:18:53;;;;;;;119.68;32.83;;;;;;;13.28;100.00;101047.94;4975760;28;20379;-39
2022/10/14 09:21:38;;;;;;;137.50;35.08;;;;;;;13.26;100.00;101058.06;4993143;28;20212;-39
2022/10/14 09:24:34;;;;;;;133.35;33.40;;;;;;;13.26;100.00;101048.13;4993384;28;20037;-40
2022/10/14 09:27:21;;;;;;;146.82;36.25;;;;;;;13.29;100.00;101047.72;4975575;28;20022;-39
2022/10/14 09:30:00;;;;;;;142.27;36.20;;;;;;;13.32;100.00;101047.34;4991554;28;20034;-38
2022/10/14 09:32:34;;;;;;;143.85;38.97;;;;;;;13.32;100.00;101050.06;4993019;28;20023;-39
2022/10/14 09:34:59;;;;;;;132.25;38.33;;;;;;;13.32;100.00;101054.59;4993093;28;20029;-39
2022/10/14 09:37:29;;;;;;;131.35;38.10;;;;;;;13.33;100.00;101054.41;4993338;28;20030;-40
2022/10/14 09:39:58;;;;;;;126.07;37.30;;;;;;;13.33;100.00;101046.31;4992873;28;20030;-40
2022/10/14 09:42:27;;;;;;;137.93;36.60;;;;;;;13.33;100.00;101032.78;4975603;28;20057;-40
2022/10/14 09:45:09;;;;;;;125.55;38.25;;;;;;;13.35;100.00;101038.84;4991588;28;20133;-40
2022/10/14 09:47:43;;;;;;;130.98;38.08;;;;;;;13.35;100.00;101038.84;4992754;28;20054;-39
2022/10/14 09:50:09;;;;;;;127.10;36.30;;;;;;;13.36;100.00;101037.81;4992803;28;20113;-40
2022/10/14 09:52:36;;;;;;;127.38;35.38;;;;;;;13.43;100.00;101043.28;4992618;28;20030;-40
2022/10/14 09:55:17;;;;;;;122.50;35.85;;;;;;;13.38;100.00;101041.16;4992759;28;20198;-39
2022/10/14 09:57:43;;;;;;;128.30;37.28;;;;;;;13.39;100.00;101042.81;4992606;28;20034;-39
2022/10/14 10:00:24;;;;;;;128.80;34.20;;;;;;;13.42;100.00;101038.06;4975197;28;20084;-40
2022/10/14 10:02:51;;;;;;;123.65;33.00;;;;;;;13.42;100.00;101041.59;4991459;28;20482;-40
2022/10/14 10:05:29;;;;;;;122.95;33.03;;;;;;;13.42;100.00;101036.19;4992803;28;20023;-40
2022/10/14 10:08:18;;;;;;;126.78;32.55;;;;;;;13.44;100.00;101038.69;4992323;28;20078;-41
2022/10/14 10:10:57;;;;;;;117.45;31.80;;;;;;;13.42;100.00;101035.34;4984036;28;20397;-39
2022/10/14 10:13:35;;;;;;;135.90;33.75;;;;;;;13.45;100.00;101034.97;4992537;28;20034;-39
2022/10/14 10:16:03;;;;;;;128.70;32.40;;;;;;;13.44;100.00;101033.28;4991658;28;20045;-39
2022/10/14 10:18:29;;;;;;;124.97;33.38;;;;;;;13.45;100.00;101029.56;4990996;28;20390;-39
2022/10/14 10:21:06;;;;;;;125.65;32.47;;;;;;;13.46;100.00;101032.06;4991826;28;20026;-42
2022/10/14 10:23:35;;;;;;;;;;;;;;;13.49;100.00;101028.13;4991255;28;20490;-41
2022/10/14 10:26:16;;;;;;;130.00;32.80;;;;;;;13.50;100.00;101027.94;4992068;28;19909;-41
2022/10/14 10:28:46;;;;;;;118.43;31.80;;;;;;;13.52;100.00;101025.03;4992216;28;20393;-41
2022/10/14 10:31:27;;;;;;;121.53;30.98;;;;;;;13.57;100.00;101028.81;4990485;28;20034;-42
2022/10/14 10:34:11;;;;;;;113.22;31.70;;;;;;;13.57;100.00;101017.16;4991852;28;20084;-42
2022/10/14 10:36:43;;;;;;;126.25;32.53;;;;;;;13.59;100.00;101015.13;4974175;28;20045;-40
2022/10/14 10:39:16;;;;;;;120.60;31.10;;;;;;;13.63;100.00;101015.53;4990492;28;20058;-41
2022/10/14 10:41:52;;;;;;;128.85;34.67;;;;;;;13.69;100.00;101021.00;4992116;28;20370;-40
2022/10/14 10:44:39;;;;;;;131.25;34.88;;;;;;;13.75;100.00;101019.38;4974129;28;20053;-40
2022/10/14 10:47:40;;;;;;;123.07;34.50;;;;;;;13.74;100.00;101018.50;4974306;28;20037;-40
2022/10/14 10:50:11;;;;;;;140.85;38.38;;;;;;;13.76;100.00;101013.75;4931078;29;20099;-40
2022/10/14 10:52:47;;;;;;;129.95;35.55;;;;;;;13.75;100.00;101017.50;4981240;28;20045;-40
2022/10/14 10:55:34;;;;;;;127.90;36.47;;;;;;;13.80;100.00;101023.16;4974166;28;20022;-40
2022/10/14 10:58:06;;;;;;;118.90;35.37;;;;;;;13.89;100.00;101021.13;4991902;28;20108;-39
2022/10/14 11:00:37;;;;;;;111.57;32.33;;;;;;;13.83;100.00;101017.34;4974020;28;20274;-38
2022/10/14 11:03:21;;;;;;;103.68;30.23;;;;;;;13.86;100.00;101010.69;4958124;28;20069;-39